Time;durP1;ratioP1;P1;durP2;ratioP2;P2;SDS_P1;SDS_P2;PMS_P1;PMS_P2;Temp;Humidity;BMP_temperature;BMP_pressure;BME280_temperature;BME280_humidity;BME280_pressure;Samples;Min_cycle;Max_cycle;Signal;HPM_P1;HPM_P2
2023/10/03 00:02:41;;;;;;;6.97;4.87;;;11.40;99.90;;;;;;8343354;28;20203;-80
2023/10/03 00:06:46;;;;;;;6.53;4.30;;;11.40;99.90;;;;;;8347794;28;20193;-78
2023/10/03 00:10:47;;;;;;;7.27;5.30;;;11.30;1.00;;;;;;8328667;28;20303;-78
2023/10/03 00:14:48;;;;;;;7.90;5.10;;;11.30;22.80;;;;;;8326065;28;20184;-78
2023/10/03 00:18:50;;;;;;;8.97;5.37;;;11.30;99.90;;;;;;8329159;28;20202;-79
2023/10/03 00:22:51;;;;;;;7.00;4.87;;;11.20;99.90;;;;;;8343890;28;20235;-79
2023/10/03 00:26:56;;;;;;;6.97;4.97;;;11.20;99.90;;;;;;8329759;28;20204;-80
2023/10/03 00:30:56;;;;;;;6.30;3.60;;;11.10;99.90;;;;;;8327097;28;20227;-79
2023/10/03 00:34:57;;;;;;;4.30;3.37;;;11.00;99.90;;;;;;8331134;28;20277;-78
2023/10/03 00:38:58;;;;;;;4.10;3.17;;;10.90;99.90;;;;;;8324350;28;20351;-79
2023/10/03 00:43:01;;;;;;;4.07;2.57;;;10.90;1.00;;;;;;8330613;28;20194;-80
2023/10/03 00:47:02;;;;;;;3.77;3.20;;;10.80;99.90;;;;;;8323184;28;20184;-78
2023/10/03 00:51:04;;;;;;;3.60;3.10;;;10.70;1.00;;;;;;8318729;28;20204;-78
2023/10/03 00:55:06;;;;;;;5.53;3.63;;;10.70;1.00;;;;;;8329267;28;20184;-79
2023/10/03 00:59:08;;;;;;;6.20;3.90;;;10.60;1.00;;;;;;8282130;28;1245346;-79
2023/10/03 01:03:28;;;;;;;4.77;3.60;;;10.60;1.00;;;;;;8327791;28;20246;-79
2023/10/03 01:07:31;;;;;;;4.70;3.53;;;10.50;99.90;;;;;;8327663;28;20190;-78
2023/10/03 01:11:32;;;;;;;4.77;3.60;;;10.50;91.10;;;;;;8328742;28;20211;-79
2023/10/03 01:15:34;;;;;;;6.30;4.73;;;10.40;99.90;;;;;;8328960;28;20237;-79
2023/10/03 01:19:37;;;;;;;7.20;4.00;;;10.40;99.90;;;;;;8321336;28;20242;-79
2023/10/03 01:23:40;;;;;;;6.27;4.30;;;10.30;99.90;;;;;;8329425;28;20247;-80
2023/10/03 01:27:44;;;;;;;7.40;4.40;;;10.30;99.90;;;;;;8342101;28;20314;-78
2023/10/03 01:31:51;;;;;;;8.00;4.63;;;10.30;99.90;;;;;;8326474;28;20199;-80
2023/10/03 01:36:02;;;;;;;6.30;4.17;;;10.30;99.90;;;;;;8324007;28;20210;-79
2023/10/03 01:40:08;;;;;;;7.47;4.57;;;10.20;99.90;;;;;;8327229;28;20202;-78
2023/10/03 01:44:11;;;;;;;6.27;4.33;;;10.20;99.90;;;;;;8324792;28;20204;-78
2023/10/03 01:48:14;;;;;;;7.20;4.60;;;10.20;99.90;;;;;;8327211;28;20215;-79
2023/10/03 01:52:16;;;;;;;7.20;4.90;;;10.20;99.90;;;;;;8322518;28;20196;-79
2023/10/03 01:56:17;;;;;;;6.37;4.37;;;10.20;99.90;;;;;;8345055;28;20405;-78
2023/10/03 02:04:28;;;;;;;5.83;3.43;;;10.10;99.90;;;;;;8342978;28;20195;-79
2023/10/03 02:08:29;;;;;;;4.70;3.57;;;10.10;99.90;;;;;;8342921;28;20218;-79
2023/10/03 02:12:30;;;;;;;4.10;3.17;;;10.00;99.90;;;;;;8340556;28;20197;-79
2023/10/03 02:16:34;;;;;;;4.63;3.90;;;9.90;99.90;;;;;;8341084;28;20246;-80
2023/10/03 02:20:52;;;;;;;5.00;3.57;;;9.90;99.90;;;;;;8337125;28;20206;-80
2023/10/03 02:24:53;;;;;;;4.07;3.47;;;9.80;99.90;;;;;;8321948;28;20196;-79
2023/10/03 02:28:54;;;;;;;4.17;3.07;;;9.80;99.90;;;;;;8318927;28;20233;-79
2023/10/03 02:32:57;;;;;;;5.27;3.47;;;9.70;99.90;;;;;;8321984;28;20188;-79
2023/10/03 02:36:58;;;;;;;4.73;3.30;;;9.70;99.90;;;;;;8323869;28;20190;-80
2023/10/03 02:41:00;;;;;;;5.00;3.47;;;9.60;99.90;;;;;;8329248;28;20189;-80
2023/10/03 02:45:01;;;;;;;5.10;3.60;;;9.60;99.90;;;;;;8330631;28;20225;-80
2023/10/03 02:49:02;;;;;;;6.03;4.37;;;9.60;99.90;;;;;;8331515;28;20244;-79
2023/10/03 02:53:07;;;;;;;4.20;3.30;;;9.60;99.90;;;;;;8351862;28;20186;-79
2023/10/03 02:57:07;;;;;;;3.10;2.80;;;9.50;99.90;;;;;;8329478;28;20187;-80
2023/10/03 03:01:09;;;;;;;3.87;3.10;;;9.50;99.90;;;;;;8342903;28;20217;-79
2023/10/03 03:05:11;;;;;;;6.50;4.23;;;9.40;99.90;;;;;;8348484;28;20186;-79
2023/10/03 03:09:23;;;;;;;6.40;4.10;;;9.40;99.90;;;;;;8329575;28;20219;-79
2023/10/03 03:13:26;;;;;;;4.20;3.23;;;9.40;99.90;;;;;;8329312;28;20186;-80
2023/10/03 03:17:28;;;;;;;3.20;2.80;;;9.30;99.90;;;;;;8345711;28;20193;-79
2023/10/03 03:21:32;;;;;;;4.50;2.63;;;9.20;99.90;;;;;;8348649;28;20220;-79
2023/10/03 03:25:42;;;;;;;3.63;2.87;;;9.10;99.90;;;;;;8348896;28;20205;-78
2023/10/03 03:34:02;;;;;;;3.47;2.87;;;9.00;99.90;;;;;;8349339;28;20304;-78
2023/10/03 03:38:05;;;;;;;4.90;2.93;;;9.00;99.90;;;;;;8334665;28;20190;-80
2023/10/03 03:42:06;;;;;;;6.60;3.57;;;8.90;99.90;;;;;;8328926;28;20185;-79
2023/10/03 03:46:08;;;;;;;7.13;3.97;;;9.00;99.90;;;;;;8329468;28;20328;-79
2023/10/03 03:50:10;;;;;;;6.23;4.10;;;9.00;99.90;;;;;;8327089;28;20206;-79
2023/10/03 03:54:12;;;;;;;11.97;5.50;;;9.10;99.90;;;;;;8329729;28;20269;-78
2023/10/03 03:58:18;;;;;;;7.80;5.23;;;9.10;99.90;;;;;;8329463;28;20331;-78
2023/10/03 04:02:18;;;;;;;8.97;5.07;;;9.30;99.90;;;;;;8326900;28;20435;-79
2023/10/03 04:06:20;;;;;;;9.40;5.73;;;9.30;99.90;;;;;;8326542;28;20493;-79
2023/10/03 04:10:22;;;;;;;8.37;5.60;;;9.40;99.90;;;;;;8326642;28;20238;-80
2023/10/03 04:14:23;;;;;;;8.97;5.27;;;9.50;99.90;;;;;;8330652;28;20212;-79
2023/10/03 04:18:24;;;;;;;9.43;6.00;;;9.40;99.90;;;;;;8330857;28;20189;-78
2023/10/03 04:22:30;;;;;;;8.30;4.90;;;9.50;99.90;;;;;;8349026;28;20229;-79
2023/10/03 04:26:32;;;;;;;7.50;4.87;;;9.50;99.90;;;;;;8330769;28;20182;-80
2023/10/03 04:30:33;;;;;;;7.70;4.53;;;9.40;99.90;;;;;;8329418;28;20228;-79
2023/10/03 04:34:34;;;;;;;6.10;4.40;;;9.30;99.90;;;;;;8347447;28;20217;-80
2023/10/03 04:38:40;;;;;;;5.17;3.60;;;9.20;99.90;;;;;;8329700;28;20216;-80
2023/10/03 04:42:45;;;;;;;5.37;3.87;;;9.10;99.90;;;;;;8331318;28;20248;-79
2023/10/03 04:46:48;;;;;;;5.93;3.90;;;9.00;99.90;;;;;;8327464;28;20213;-79
2023/10/03 04:50:49;;;;;;;6.03;4.13;;;8.90;99.90;;;;;;8330909;28;20274;-79
2023/10/03 04:54:50;;;;;;;5.90;3.93;;;8.90;99.90;;;;;;8347065;28;20401;-79
2023/10/03 04:58:51;;;;;;;7.00;4.67;;;8.90;99.90;;;;;;8327521;28;20200;-79
2023/10/03 05:02:54;;;;;;;5.17;3.80;;;8.90;99.90;;;;;;8327468;28;20197;-79
2023/10/03 05:06:56;;;;;;;4.67;3.57;;;8.90;99.90;;;;;;8347860;28;20185;-79
2023/10/03 05:11:02;;;;;;;4.80;3.63;;;8.80;99.90;;;;;;8327424;28;20201;-79
2023/10/03 05:15:07;;;;;;;6.27;3.80;;;8.80;99.90;;;;;;8329581;28;20182;-79
2023/10/03 05:19:09;;;;;;;8.30;5.17;;;8.80;99.90;;;;;;8330035;28;20177;-79
2023/10/03 05:23:15;;;;;;;7.10;5.00;;;8.90;99.90;;;;;;8342941;28;20224;-80
2023/10/03 05:27:16;;;;;;;7.33;5.10;;;9.00;99.90;;;;;;8342611;28;20178;-79
2023/10/03 05:31:18;;;;;;;8.33;4.70;;;9.20;99.90;;;;;;8341884;28;20412;-80
2023/10/03 05:35:25;;;;;;;5.50;4.10;;;9.40;99.90;;;;;;8324341;28;20183;-80
2023/10/03 05:39:26;;;;;;;9.20;5.03;;;9.40;99.90;;;;;;8341558;28;20190;-80
2023/10/03 05:43:29;;;;;;;9.33;4.97;;;9.60;99.90;;;;;;8321477;28;20178;-81
2023/10/03 05:47:30;;;;;;;6.67;4.70;;;9.70;99.90;;;;;;8341790;28;20269;-81
2023/10/03 05:51:31;;;;;;;7.87;5.40;;;9.80;99.90;;;;;;8325251;28;20303;-81
2023/10/03 05:55:31;;;;;;;8.43;6.23;;;10.00;99.90;;;;;;8342312;28;21372;-81
2023/10/03 05:59:32;;;;;;;10.77;7.33;;;10.30;99.90;;;;;;8324233;28;20258;-81
2023/10/03 06:03:33;;;;;;;10.43;5.60;;;10.50;99.90;;;;;;8324360;28;20210;-81
2023/10/03 06:07:41;;;;;;;11.97;6.47;;;10.80;99.90;;;;;;8342019;28;20215;-81
2023/10/03 06:11:42;;;;;;;10.10;6.47;;;11.10;99.90;;;;;;8323618;28;20216;-81
2023/10/03 06:15:43;;;;;;;8.67;5.43;;;11.50;99.90;;;;;;8325089;28;20327;-81
2023/10/03 06:19:44;;;;;;;10.27;5.73;;;11.80;99.90;;;;;;8328561;28;20214;-81
2023/10/03 06:23:46;;;;;;;10.17;5.47;;;12.10;99.90;;;;;;8330385;28;20390;-81
2023/10/03 06:27:47;;;;;;;13.43;9.03;;;12.30;99.90;;;;;;8327613;28;20187;-81
2023/10/03 06:31:51;;;;;;;12.50;9.10;;;12.50;99.90;;;;;;8330369;28;20188;-81
2023/10/03 06:35:52;;;;;;;13.03;9.10;;;12.70;99.90;;;;;;8330260;28;20194;-81
2023/10/03 06:39:54;;;;;;;12.63;8.33;;;12.90;99.90;;;;;;8328808;28;20280;-81
2023/10/03 06:43:54;;;;;;;13.60;8.37;;;13.10;99.90;;;;;;8343530;28;20186;-81
2023/10/03 06:48:02;;;;;;;15.10;8.27;;;13.30;99.90;;;;;;8330052;28;20210;-81
2023/10/03 06:52:03;;;;;;;9.10;6.30;;;13.60;99.90;;;;;;8330162;28;20182;-81
2023/10/03 06:56:04;;;;;;;10.10;5.57;;;14.10;99.90;;;;;;8326897;28;20190;-81
2023/10/03 07:00:06;;;;;;;13.17;7.50;;;14.60;99.90;;;;;;8330910;28;20208;-81
2023/10/03 07:04:08;;;;;;;9.23;5.97;;;15.10;99.90;;;;;;8330373;28;20194;-81
2023/10/03 07:08:09;;;;;;;12.23;7.17;;;15.20;99.90;;;;;;8326812;28;20198;-81
2023/10/03 07:12:10;;;;;;;11.43;7.27;;;15.40;99.90;;;;;;8344722;28;20178;-81
2023/10/03 07:16:11;;;;;;;12.53;8.00;;;15.60;99.90;;;;;;8328767;28;20212;-81
2023/10/03 07:20:13;;;;;;;12.37;7.90;;;16.00;99.90;;;;;;8328726;28;20205;-81
2023/10/03 07:24:13;;;;;;;8.97;6.23;;;16.40;99.90;;;;;;8327218;28;20263;-81
2023/10/03 07:28:14;;;;;;;10.77;6.70;;;16.80;99.90;;;;;;8328369;28;20541;-81
2023/10/03 07:32:16;;;;;;;9.70;5.43;;;17.30;99.90;;;;;;8326418;28;20454;-81
2023/10/03 07:36:17;;;;;;;7.60;4.20;;;17.80;99.90;;;;;;8328380;28;20232;-81
2023/10/03 07:40:22;;;;;;;8.37;3.83;;;18.30;99.90;;;;;;8347470;28;20221;-81
2023/10/03 07:44:25;;;;;;;8.33;3.47;;;18.80;99.90;;;;;;8327522;28;20190;-81
2023/10/03 07:48:26;;;;;;;7.70;3.20;;;19.30;99.90;;;;;;8328421;28;20221;-81
2023/10/03 07:52:27;;;;;;;5.03;3.20;;;19.80;1.00;;;;;;8327872;28;20272;-81
2023/10/03 07:56:31;;;;;;;5.67;3.30;;;20.20;1.00;;;;;;8327452;28;20544;-82
2023/10/03 08:00:34;;;;;;;5.40;3.53;;;20.50;1.00;;;;;;8345088;28;20202;-82
2023/10/03 08:04:37;;;;;;;5.43;2.90;;;20.90;1.00;;;;;;8345729;28;20244;-82
2023/10/03 08:08:38;;;;;;;6.93;2.87;;;21.10;1.00;;;;;;8345207;28;20228;-82
2023/10/03 08:12:40;;;;;;;4.80;2.83;;;21.40;1.00;;;;;;8329191;28;20190;-82
2023/10/03 08:16:43;;;;;;;6.83;2.97;;;21.70;1.00;;;;;;8346774;28;20290;-82
2023/10/03 08:20:53;;;;;;;5.13;3.20;;;22.00;1.00;;;;;;8327358;28;20205;-82
2023/10/03 08:24:54;;;;;;;11.30;2.80;;;22.30;1.00;;;;;;8346565;28;20216;-82
2023/10/03 08:29:04;;;;;;;5.23;2.80;;;22.70;1.00;;;;;;8349025;28;20281;-83
2023/10/03 08:33:05;;;;;;;4.30;2.10;;;23.10;1.00;;;;;;8346385;28;20198;-83
2023/10/03 08:37:06;;;;;;;4.40;2.60;;;23.60;1.00;;;;;;8329772;28;20192;-83
2023/10/03 08:41:07;;;;;;;2.97;2.03;;;24.00;1.00;;;;;;8351314;28;20186;-82
2023/10/03 08:45:22;;;;;;;4.70;2.17;;;24.20;1.00;;;;;;8325600;28;20186;-83
2023/10/03 08:49:38;;;;;;;5.60;3.00;;;24.50;1.00;;;;;;8333057;28;20210;-83
2023/10/03 08:53:40;;;;;;;5.45;2.47;;;24.60;1.00;;;;;;8330118;28;20217;-82
2023/10/03 08:57:41;;;;;;;6.97;2.90;;;24.80;1.00;;;;;;8331103;28;20271;-81
2023/10/03 09:01:45;;;;;;;4.80;3.13;;;25.00;1.00;;;;;;8331596;28;20197;-82
2023/10/03 09:05:48;;;;;;;7.00;3.42;;;25.40;1.00;;;;;;8346012;28;20296;-81
2023/10/03 09:09:53;;;;;;;5.85;3.40;;;25.80;1.00;;;;;;8345175;28;20197;-83
2023/10/03 09:13:59;;;;;;;5.25;3.17;;;26.00;1.00;;;;;;8331200;28;20235;-82
2023/10/03 09:18:00;;;;;;;5.60;3.47;;;26.20;1.00;;;;;;8330013;28;20190;-83
2023/10/03 09:22:01;;;;;;;8.82;4.75;;;26.50;1.00;;;;;;8346867;28;20492;-81
2023/10/03 09:26:03;;;;;;;9.13;4.43;;;26.70;1.00;;;;;;8346085;28;20194;-83
2023/10/03 09:30:08;;;;;;;8.82;5.28;;;26.60;1.00;;;;;;8329976;28;20201;-81
2023/10/03 09:34:13;;;;;;;8.27;4.85;;;26.50;1.00;;;;;;8320668;28;20186;-82
2023/10/03 09:38:19;;;;;;;8.77;4.50;;;26.50;1.00;;;;;;8326774;28;20186;-81
2023/10/03 09:42:23;;;;;;;8.70;4.65;;;26.40;1.00;;;;;;8343798;28;20246;-83
2023/10/03 09:46:38;;;;;;;9.02;5.32;;;26.30;1.00;;;;;;8340875;28;20197;-82
2023/10/03 09:50:51;;;;;;;11.25;6.38;;;26.20;1.00;;;;;;8327050;28;20244;-81
2023/10/03 09:55:00;;;;;;;11.50;6.70;;;26.20;1.00;;;;;;8327186;28;20441;-81
2023/10/03 09:59:01;;;;;;;12.82;7.32;;;26.50;1.00;;;;;;8325774;28;20213;-81
2023/10/03 10:03:06;;;;;;;10.75;6.47;;;26.70;1.00;;;;;;8327294;28;20227;-81
2023/10/03 10:07:29;;;;;;;13.15;7.50;;;27.10;1.00;;;;;;8342636;28;20173;-81
2023/10/03 10:12:13;;;;;;;15.00;8.20;;;27.20;1.00;;;;;;8324302;28;20214;-81
2023/10/03 10:16:20;;;;;;;14.07;8.20;;;27.20;1.00;;;;;;8324272;28;20244;-83
2023/10/03 10:20:27;;;;;;;16.00;8.75;;;27.50;1.00;;;;;;8325284;28;20213;-81
2023/10/03 10:24:36;;;;;;;18.88;8.77;;;27.70;1.00;;;;;;8321304;28;20305;-82
2023/10/03 10:28:42;;;;;;;14.80;8.45;;;27.80;1.00;;;;;;8323688;28;20266;-81
2023/10/03 10:33:23;;;;;;;13.68;8.60;;;27.80;1.00;;;;;;8323955;28;20506;-81
2023/10/03 10:37:27;;;;;;;14.63;8.13;;;27.90;1.00;;;;;;8323333;28;20189;-81
2023/10/03 10:41:29;;;;;;;15.23;8.52;;;28.30;1.00;;;;;;8322783;28;20240;-80
2023/10/03 10:45:39;;;;;;;13.75;8.63;;;28.60;1.00;;;;;;8329279;28;20182;-80
2023/10/03 10:49:40;;;;;;;14.60;8.73;;;28.90;1.00;;;;;;8343748;28;20244;-81
2023/10/03 10:53:44;;;;;;;12.77;8.70;;;29.10;1.00;;;;;;8325460;28;20443;-81
2023/10/03 10:57:45;;;;;;;15.55;8.93;;;29.20;1.00;;;;;;8324753;28;20182;-81
2023/10/03 11:01:47;;;;;;;13.88;8.80;;;29.20;1.00;;;;;;8329443;28;20583;-82
2023/10/03 11:05:52;;;;;;;13.48;8.23;;;29.40;1.00;;;;;;8334557;28;20498;-80
2023/10/03 11:09:56;;;;;;;16.27;9.05;;;29.30;99.90;;;;;;8349349;28;20293;-83
2023/10/03 11:13:56;;;;;;;17.73;9.60;;;28.90;99.90;;;;;;8331437;28;20191;-81
2023/10/03 11:17:58;;;;;;;13.35;8.55;;;28.60;99.90;;;;;;8326269;28;20440;-80
2023/10/03 11:22:05;;;;;;;15.73;9.05;;;28.40;99.90;;;;;;8332850;28;20210;-81
2023/10/03 11:26:06;;;;;;;15.70;8.63;;;28.20;99.90;;;;;;8331595;28;20193;-78
2023/10/03 11:30:22;;;;;;;19.85;9.73;;;28.20;99.90;;;;;;8330414;28;20275;-80
2023/10/03 11:34:35;;;;;;;14.20;9.13;;;28.20;99.90;;;;;;8349157;28;20239;-80
2023/10/03 11:38:50;;;;;;;13.60;8.65;;;28.10;99.90;;;;;;8346203;28;20276;-81
2023/10/03 11:43:07;;;;;;;14.65;8.65;;;28.10;99.90;;;;;;8333280;28;20185;-82
2023/10/03 11:47:08;;;;;;;13.75;8.30;;;28.10;99.90;;;;;;8330876;28;20206;-83
2023/10/03 11:51:09;;;;;;;13.57;7.57;;;28.10;99.90;;;;;;8331796;28;20245;-79
2023/10/03 11:55:15;;;;;;;14.65;7.57;;;28.10;99.90;;;;;;8331162;28;20283;-82
2023/10/03 11:59:16;;;;;;;13.40;8.25;;;28.00;99.90;;;;;;8330310;28;20197;-81
2023/10/03 12:03:19;;;;;;;11.57;7.47;;;27.80;99.90;;;;;;8326761;28;20293;-79
2023/10/03 12:07:20;;;;;;;12.50;7.10;;;27.80;99.90;;;;;;8327495;28;20236;-80
2023/10/03 12:11:21;;;;;;;12.75;7.53;;;27.80;99.90;;;;;;8326001;28;20239;-80
2023/10/03 12:15:23;;;;;;;11.40;7.20;;;27.80;99.90;;;;;;8329048;28;20189;-79
2023/10/03 12:19:24;;;;;;;15.00;7.10;;;27.80;99.90;;;;;;8328271;28;20190;-79
2023/10/03 12:23:24;;;;;;;12.73;7.88;;;28.00;99.90;;;;;;8326689;28;20284;-80
2023/10/03 12:27:29;;;;;;;11.48;7.50;;;28.10;99.90;;;;;;8324410;28;20280;-79
2023/10/03 12:31:30;;;;;;;11.95;7.35;;;28.10;99.90;;;;;;8347072;28;20209;-80
2023/10/03 12:35:31;;;;;;;17.15;7.88;;;27.90;99.90;;;;;;8329938;28;20178;-79
2023/10/03 12:39:35;;;;;;;12.95;6.28;;;28.10;99.90;;;;;;8329317;28;20216;-81
2023/10/03 12:43:37;;;;;;;13.63;6.95;;;28.10;99.90;;;;;;8343720;28;20185;-81
2023/10/03 12:47:39;;;;;;;11.27;6.68;;;28.10;99.90;;;;;;8330408;28;20423;-82
2023/10/03 12:51:42;;;;;;;11.50;6.88;;;28.10;99.90;;;;;;8346017;28;20256;-81
2023/10/03 12:55:42;;;;;;;13.77;7.45;;;27.90;99.90;;;;;;8330982;28;20182;-83
2023/10/03 12:59:44;;;;;;;14.00;7.25;;;27.70;99.90;;;;;;8334108;28;20194;-81
2023/10/03 13:03:46;;;;;;;10.55;6.82;;;27.50;99.90;;;;;;8328776;28;20182;-81
2023/10/03 13:07:48;;;;;;;12.43;6.95;;;27.30;99.90;;;;;;8346981;28;20229;-81
2023/10/03 13:11:49;;;;;;;13.00;7.13;;;27.20;99.90;;;;;;8329567;28;20193;-81
2023/10/03 13:15:54;;;;;;;10.82;7.30;;;27.10;99.90;;;;;;8328004;28;20289;-81
2023/10/03 13:19:54;;;;;;;11.50;7.38;;;27.10;99.90;;;;;;8325904;28;20193;-81
2023/10/03 13:23:56;;;;;;;12.13;7.30;;;27.20;99.90;;;;;;8324322;28;20205;-82
2023/10/03 13:27:58;;;;;;;12.05;7.43;;;27.10;99.90;;;;;;8325944;28;20483;-80
2023/10/03 13:31:58;;;;;;;10.07;6.80;;;27.10;99.90;;;;;;8323027;28;20178;-81
2023/10/03 13:35:59;;;;;;;11.85;7.10;;;27.20;99.90;;;;;;8342488;28;20185;-82
2023/10/03 13:40:05;;;;;;;12.77;6.85;;;27.10;99.90;;;;;;8324063;28;20186;-82
2023/10/03 13:44:06;;;;;;;12.73;7.07;;;27.20;1.00;;;;;;8322512;28;20186;-81
2023/10/03 13:48:07;;;;;;;11.43;7.32;;;27.20;99.90;;;;;;8323026;28;20182;-81
2023/10/03 13:52:08;;;;;;;12.45;7.60;;;27.30;99.90;;;;;;8325403;28;20227;-81
2023/10/03 13:56:09;;;;;;;16.27;7.72;;;27.50;99.90;;;;;;8340851;28;20185;-81
2023/10/03 14:00:13;;;;;;;12.45;7.22;;;27.50;99.90;;;;;;8341012;28;20202;-81
2023/10/03 14:04:14;;;;;;;12.32;7.32;;;27.20;99.90;;;;;;8322429;28;20395;-81
2023/10/03 14:08:17;;;;;;;12.40;6.78;;;27.00;99.90;;;;;;8324050;28;20198;-83
2023/10/03 14:12:21;;;;;;;14.82;7.70;;;26.90;99.90;;;;;;8343139;28;20178;-80
2023/10/03 14:16:22;;;;;;;10.23;6.50;;;26.80;1.00;;;;;;8338278;28;20185;-82
2023/10/03 14:20:26;;;;;;;14.95;7.43;;;26.80;99.90;;;;;;8322931;28;20206;-81
2023/10/03 14:24:27;;;;;;;11.32;7.07;;;26.90;99.90;;;;;;8325304;28;20193;-82
2023/10/03 14:28:31;;;;;;;13.93;7.68;;;27.00;99.90;;;;;;8343321;28;20321;-83
2023/10/03 14:32:33;;;;;;;14.93;7.78;;;26.90;99.90;;;;;;8343934;28;20188;-82
2023/10/03 14:36:34;;;;;;;15.27;8.00;;;26.80;99.90;;;;;;8327672;28;20174;-81
2023/10/03 14:40:34;;;;;;;12.57;7.05;;;26.70;99.90;;;;;;8333089;28;20186;-82
2023/10/03 14:44:39;;;;;;;10.38;7.00;;;26.70;99.90;;;;;;8331200;28;20424;-81
2023/10/03 14:48:41;;;;;;;12.55;6.50;;;26.60;99.90;;;;;;8334501;28;20205;-81
2023/10/03 14:52:43;;;;;;;14.85;7.97;;;26.50;99.90;;;;;;8328517;28;20217;-81
2023/10/03 14:56:47;;;;;;;15.30;7.93;;;26.30;99.90;;;;;;8328418;28;20400;-80
2023/10/03 15:00:51;;;;;;;19.05;8.27;;;26.00;99.90;;;;;;8347169;28;20197;-81
2023/10/03 15:04:52;;;;;;;14.23;7.05;;;25.80;99.90;;;;;;8324670;28;20196;-81
2023/10/03 15:08:56;;;;;;;10.52;7.05;;;25.70;99.90;;;;;;8326562;28;20214;-81
2023/10/03 15:13:00;;;;;;;16.80;7.80;;;25.70;99.90;;;;;;8329413;28;20186;-81
2023/10/03 15:17:01;;;;;;;13.10;7.95;;;25.60;99.90;;;;;;8326748;28;20193;-81
2023/10/03 15:21:05;;;;;;;11.70;7.38;;;25.60;99.90;;;;;;8328677;28;20275;-81
2023/10/03 15:25:09;;;;;;;11.55;7.50;;;25.60;99.90;;;;;;8322929;28;20185;-80
2023/10/03 15:29:11;;;;;;;12.48;7.55;;;25.40;99.90;;;;;;8328036;28;20201;-81
2023/10/03 15:33:12;;;;;;;16.70;7.85;;;25.30;99.90;;;;;;8327001;28;20205;-80
2023/10/03 15:37:13;;;;;;;13.50;7.50;;;25.10;99.90;;;;;;8347044;28;20186;-80
2023/10/03 15:41:14;;;;;;;15.15;7.88;;;25.00;99.90;;;;;;8343998;28;20309;-79
2023/10/03 15:45:17;;;;;;;12.13;7.13;;;24.80;99.90;;;;;;8343609;28;20190;-79
2023/10/03 15:49:20;;;;;;;15.18;8.30;;;24.70;1.00;;;;;;8327039;28;20616;-80
2023/10/03 15:53:22;;;;;;;15.98;7.88;;;24.60;1.00;;;;;;8331474;28;20190;-80
2023/10/03 15:57:24;;;;;;;14.10;7.68;;;24.50;1.00;;;;;;8329813;28;20186;-81
2023/10/03 16:01:25;;;;;;;12.30;7.18;;;24.30;1.00;;;;;;8328138;28;20203;-80
2023/10/03 16:05:32;;;;;;;15.37;7.80;;;24.20;1.00;;;;;;8326455;28;20193;-80
2023/10/03 16:09:33;;;;;;;15.13;7.43;;;24.10;1.00;;;;;;8328026;28;20216;-80
2023/10/03 16:13:36;;;;;;;12.83;7.70;;;24.00;1.00;;;;;;8326213;28;20525;-81
2023/10/03 16:17:40;;;;;;;11.97;7.60;;;23.80;1.00;;;;;;8328265;28;20235;-78
2023/10/03 16:21:41;;;;;;;14.00;7.57;;;23.70;1.00;;;;;;8343301;28;20206;-79
2023/10/03 16:25:46;;;;;;;15.13;8.20;;;23.50;1.00;;;;;;8327759;28;20190;-81
2023/10/03 16:29:49;;;;;;;13.83;7.77;;;23.40;1.00;;;;;;8335864;28;20205;-81
2023/10/03 16:33:56;;;;;;;12.93;7.43;;;23.40;1.00;;;;;;8327490;28;20184;-80
2023/10/03 16:37:58;;;;;;;11.40;7.57;;;23.40;1.00;;;;;;8324668;28;20185;-81
2023/10/03 16:42:03;;;;;;;12.27;7.97;;;23.40;1.00;;;;;;8327255;28;20214;-81
2023/10/03 16:46:09;;;;;;;14.47;7.97;;;23.30;1.00;;;;;;8330174;28;20192;-81
2023/10/03 16:50:10;;;;;;;14.53;8.27;;;23.30;1.00;;;;;;8345566;28;20201;-80
2023/10/03 16:54:12;;;;;;;12.57;7.90;;;23.20;1.00;;;;;;8327611;28;20186;-80
2023/10/03 16:58:13;;;;;;;12.30;7.47;;;23.30;1.00;;;;;;8325735;28;20204;-81
2023/10/03 17:02:14;;;;;;;17.03;8.73;;;23.20;1.00;;;;;;8326119;28;20204;-81
2023/10/03 17:06:15;;;;;;;14.67;9.37;;;23.30;1.00;;;;;;8340681;28;20178;-81
2023/10/03 17:10:17;;;;;;;14.13;8.33;;;23.30;1.00;;;;;;8329755;28;20240;-80
2023/10/03 17:14:18;;;;;;;14.80;8.20;;;23.30;1.00;;;;;;8324122;28;20205;-81
2023/10/03 17:18:19;;;;;;;12.87;7.60;;;23.30;1.00;;;;;;8326152;28;20197;-80
2023/10/03 17:22:22;;;;;;;14.63;8.63;;;23.20;1.00;;;;;;8322366;28;20213;-81
2023/10/03 17:26:23;;;;;;;11.57;7.80;;;23.20;1.00;;;;;;8341995;28;20270;-82
2023/10/03 17:30:25;;;;;;;13.97;8.23;;;23.10;1.00;;;;;;8326986;28;20288;-82
2023/10/03 17:34:26;;;;;;;15.97;8.87;;;23.10;1.00;;;;;;8324738;28;20257;-81
2023/10/03 17:38:27;;;;;;;11.73;7.87;;;23.10;1.00;;;;;;8325525;28;20189;-82
2023/10/03 17:42:29;;;;;;;13.30;7.83;;;23.00;1.00;;;;;;8326161;28;20253;-81
2023/10/03 17:46:30;;;;;;;12.53;7.60;;;22.80;1.00;;;;;;8325192;28;20224;-81
2023/10/03 17:50:31;;;;;;;11.80;8.10;;;22.70;1.00;;;;;;8323433;28;20225;-80
2023/10/03 17:54:32;;;;;;;13.33;7.60;;;22.70;1.00;;;;;;8326141;28;20181;-81
2023/10/03 17:58:34;;;;;;;12.50;7.77;;;22.70;1.00;;;;;;8323266;28;20182;-80
2023/10/03 18:02:35;;;;;;;13.87;7.37;;;22.70;1.00;;;;;;8343276;28;20201;-78
2023/10/03 18:06:36;;;;;;;17.83;8.00;;;22.70;1.00;;;;;;8340728;28;20297;-81
2023/10/03 18:10:37;;;;;;;14.53;7.30;;;22.60;1.00;;;;;;8326949;28;20213;-80
2023/10/03 18:14:38;;;;;;;16.60;8.70;;;22.60;1.00;;;;;;8349683;28;20186;-81
2023/10/03 18:18:39;;;;;;;16.13;7.53;;;22.60;1.00;;;;;;8346694;28;20182;-78
2023/10/03 18:22:41;;;;;;;12.50;7.67;;;22.60;1.00;;;;;;8329293;28;20245;-81
2023/10/03 18:26:42;;;;;;;12.00;3.47;;;22.50;1.00;;;;;;8348537;28;20305;-81
2023/10/03 18:30:43;;;;;;;5.57;2.13;;;21.90;1.00;;;;;;8331920;28;20209;-78
2023/10/03 18:34:44;;;;;;;6.60;2.43;;;20.20;1.00;;;;;;8333003;28;20249;-79
2023/10/03 18:38:45;;;;;;;8.63;2.63;;;18.90;1.00;;;;;;8345117;28;20194;-79
2023/10/03 18:47:44;;;;;;;9.27;3.20;;;17.00;99.90;;;;;;8347389;28;20200;-81
2023/10/03 18:51:46;;;;;;;7.20;3.13;;;16.40;1.00;;;;;;8349026;28;20209;-83
2023/10/03 18:55:50;;;;;;;6.23;3.73;;;15.70;99.90;;;;;;8353914;28;20185;-81
2023/10/03 18:59:51;;;;;;;6.93;3.53;;;15.30;1.00;;;;;;8344830;28;20413;-80
2023/10/03 19:03:53;;;;;;;7.70;3.93;;;15.10;99.90;;;;;;8335458;28;20194;-81
2023/10/03 19:07:54;;;;;;;5.27;3.53;;;15.00;99.90;;;;;;8328968;28;20182;-81
2023/10/03 19:11:55;;;;;;;5.90;3.60;;;15.00;99.90;;;;;;8350470;28;20237;-81
2023/10/03 19:15:56;;;;;;;7.30;4.57;;;14.90;99.90;;;;;;8330517;28;20196;-81
2023/10/03 19:19:57;;;;;;;8.57;3.97;;;14.90;99.90;;;;;;8350836;28;20256;-80
2023/10/03 19:23:58;;;;;;;6.13;3.83;;;14.90;99.90;;;;;;8331586;28;20240;-81
2023/10/03 19:28:01;;;;;;;6.47;4.37;;;14.90;99.90;;;;;;8331436;28;20174;-82
2023/10/03 19:32:05;;;;;;;5.97;3.60;;;14.90;99.90;;;;;;8330005;28;20214;-79
2023/10/03 19:36:12;;;;;;;6.57;4.03;;;14.90;99.90;;;;;;8328569;28;20479;-79
2023/10/03 19:40:17;;;;;;;8.67;3.63;;;14.90;99.90;;;;;;8347204;28;20186;-81
2023/10/03 19:44:18;;;;;;;5.60;3.47;;;14.90;99.90;;;;;;8328283;28;20264;-80
2023/10/03 19:48:22;;;;;;;5.97;3.20;;;14.90;99.90;;;;;;8326862;28;20216;-81
2023/10/03 19:52:24;;;;;;;6.30;3.50;;;14.90;99.90;;;;;;8346022;28;20182;-79
2023/10/03 19:56:26;;;;;;;5.03;3.20;;;14.90;99.90;;;;;;8348828;28;20186;-81
2023/10/03 20:00:27;;;;;;;5.77;3.50;;;14.80;99.90;;;;;;8324168;28;20198;-79
2023/10/03 20:04:28;;;;;;;9.70;3.40;;;14.80;99.90;;;;;;8330980;28;20186;-80
2023/10/03 20:08:30;;;;;;;7.50;3.57;;;14.80;99.90;;;;;;8329028;28;20213;-80
2023/10/03 20:12:33;;;;;;;6.50;3.50;;;14.80;99.90;;;;;;8344344;28;20241;-80
2023/10/03 20:16:34;;;;;;;6.73;3.73;;;14.70;99.90;;;;;;8326316;28;20183;-81
2023/10/03 20:20:34;;;;;;;6.77;3.60;;;14.70;99.90;;;;;;8328375;28;20233;-80
2023/10/03 20:24:36;;;;;;;4.93;3.00;;;14.70;99.90;;;;;;8329886;28;20193;-80
2023/10/03 20:28:37;;;;;;;5.60;3.03;;;14.70;99.90;;;;;;8345836;28;20229;-81
2023/10/03 20:32:38;;;;;;;6.70;3.30;;;14.70;99.90;;;;;;8346791;28;20373;-83
2023/10/03 20:36:39;;;;;;;4.73;3.13;;;14.60;99.90;;;;;;8327019;28;20182;-82
2023/10/03 20:40:41;;;;;;;4.93;2.93;;;14.60;99.90;;;;;;8327891;28;20186;-83
2023/10/03 20:44:42;;;;;;;6.07;3.17;;;14.60;99.90;;;;;;8342595;28;20185;-83
2023/10/03 20:48:43;;;;;;;5.17;3.00;;;14.60;99.90;;;;;;8325200;28;20210;-83
2023/10/03 20:52:44;;;;;;;7.13;3.30;;;14.60;99.90;;;;;;8326067;28;20225;-82
2023/10/03 20:56:45;;;;;;;5.63;2.70;;;14.70;99.90;;;;;;8325273;28;20186;-82
2023/10/03 21:00:45;;;;;;;5.33;3.20;;;14.70;99.90;;;;;;8343689;28;20245;-82
2023/10/03 21:04:47;;;;;;;4.07;2.80;;;14.70;99.90;;;;;;8323670;28;20196;-83
2023/10/03 21:08:47;;;;;;;4.50;2.80;;;14.70;99.90;;;;;;8326458;28;20450;-82
2023/10/03 21:12:49;;;;;;;5.83;2.60;;;14.80;99.90;;;;;;8326493;28;20202;-82
2023/10/03 21:16:50;;;;;;;5.53;2.80;;;14.80;99.90;;;;;;8328957;28;20217;-82
2023/10/03 21:20:52;;;;;;;6.37;2.67;;;14.80;99.90;;;;;;8326530;28;20474;-83